sensor_id;sensor_type;location;lat;lon;timestamp;P1;durP1;ratioP1;P2;durP2;ratioP2
34541;SDS011;20784;51.332;12.410;2024-02-21T00:00:23;13.15;;;3.60;;
34541;SDS011;20784;51.332;12.410;2024-02-21T00:02:49;12.65;;;3.15;;
34541;SDS011;20784;51.332;12.410;2024-02-21T00:07:51;12.73;;;4.43;;
34541;SDS011;20784;51.332;12.410;2024-02-21T00:10:17;16.40;;;3.70;;
34541;SDS011;20784;51.332;12.410;2024-02-21T00:12:43;11.20;;;3.03;;
34541;SDS011;20784;51.332;12.410;2024-02-21T00:15:09;16.05;;;4.00;;
34541;SDS011;20784;51.332;12.410;2024-02-21T00:17:38;19.48;;;3.78;;
34541;SDS011;20784;51.332;12.410;2024-02-21T00:20:07;9.48;;;3.63;;
34541;SDS011;20784;51.332;12.410;2024-02-21T00:22:33;17.48;;;3.80;;
34541;SDS011;20784;51.332;12.410;2024-02-21T00:25:01;13.90;;;3.30;;
34541;SDS011;20784;51.332;12.410;2024-02-21T00:27:27;16.85;;;3.53;;
34541;SDS011;20784;51.332;12.410;2024-02-21T00:29:53;13.05;;;3.45;;
34541;SDS011;20784;51.332;12.410;2024-02-21T00:32:19;12.10;;;4.05;;
34541;SDS011;20784;51.332;12.410;2024-02-21T00:34:45;16.25;;;3.88;;
34541;SDS011;20784;51.332;12.410;2024-02-21T00:37:11;16.40;;;2.97;;
34541;SDS011;20784;51.332;12.410;2024-02-21T00:39:37;12.07;;;3.20;;
34541;SDS011;20784;51.332;12.410;2024-02-21T00:42:03;9.20;;;3.08;;
34541;SDS011;20784;51.332;12.410;2024-02-21T00:44:29;14.40;;;3.67;;
34541;SDS011;20784;51.332;12.410;2024-02-21T00:46:54;12.55;;;3.35;;
34541;SDS011;20784;51.332;12.410;2024-02-21T00:49:27;11.80;;;3.45;;
34541;SDS011;20784;51.332;12.410;2024-02-21T00:51:55;18.30;;;3.60;;
34541;SDS011;20784;51.332;12.410;2024-02-21T00:54:24;10.68;;;3.15;;
34541;SDS011;20784;51.332;12.410;2024-02-21T00:56:52;12.93;;;3.42;;
34541;SDS011;20784;51.332;12.410;2024-02-21T00:59:18;19.73;;;3.53;;
34541;SDS011;20784;51.332;12.410;2024-02-21T01:01:47;11.30;;;3.30;;
34541;SDS011;20784;51.332;12.410;2024-02-21T01:04:12;13.63;;;3.30;;
34541;SDS011;20784;51.332;12.410;2024-02-21T01:06:38;16.70;;;4.28;;
34541;SDS011;20784;51.332;12.410;2024-02-21T01:09:03;16.25;;;3.17;;
34541;SDS011;20784;51.332;12.410;2024-02-21T01:11:29;12.57;;;3.72;;
34541;SDS011;20784;51.332;12.410;2024-02-21T01:13:55;8.68;;;2.88;;
34541;SDS011;20784;51.332;12.410;2024-02-21T01:16:20;15.20;;;4.00;;
34541;SDS011;20784;51.332;12.410;2024-02-21T01:18:48;16.65;;;3.50;;
34541;SDS011;20784;51.332;12.410;2024-02-21T01:21:14;20.08;;;4.50;;
34541;SDS011;20784;51.332;12.410;2024-02-21T01:23:40;17.92;;;2.85;;
34541;SDS011;20784;51.332;12.410;2024-02-21T01:26:05;18.73;;;3.55;;
34541;SDS011;20784;51.332;12.410;2024-02-21T01:28:33;13.40;;;3.90;;
34541;SDS011;20784;51.332;12.410;2024-02-21T01:30:59;15.13;;;3.80;;
34541;SDS011;20784;51.332;12.410;2024-02-21T01:33:24;15.07;;;4.18;;
34541;SDS011;20784;51.332;12.410;2024-02-21T01:35:50;10.20;;;2.97;;
34541;SDS011;20784;51.332;12.410;2024-02-21T01:38:16;10.98;;;2.75;;
34541;SDS011;20784;51.332;12.410;2024-02-21T01:40:41;13.18;;;3.38;;
34541;SDS011;20784;51.332;12.410;2024-02-21T01:43:17;19.88;;;3.80;;
34541;SDS011;20784;51.332;12.410;2024-02-21T01:45:49;19.92;;;3.60;;
34541;SDS011;20784;51.332;12.410;2024-02-21T01:48:19;11.07;;;3.38;;
34541;SDS011;20784;51.332;12.410;2024-02-21T01:50:46;14.77;;;3.73;;
34541;SDS011;20784;51.332;12.410;2024-02-21T01:53:14;10.95;;;3.30;;
34541;SDS011;20784;51.332;12.410;2024-02-21T01:55:47;12.35;;;3.42;;
34541;SDS011;20784;51.332;12.410;2024-02-21T01:58:13;13.23;;;3.47;;
34541;SDS011;20784;51.332;12.410;2024-02-21T02:00:44;11.55;;;3.75;;
34541;SDS011;20784;51.332;12.410;2024-02-21T02:03:10;14.35;;;3.95;;
34541;SDS011;20784;51.332;12.410;2024-02-21T02:05:45;12.15;;;3.92;;
34541;SDS011;20784;51.332;12.410;2024-02-21T02:08:20;15.70;;;3.85;;
34541;SDS011;20784;51.332;12.410;2024-02-21T02:10:47;19.85;;;3.58;;
34541;SDS011;20784;51.332;12.410;2024-02-21T02:13:13;10.85;;;3.60;;
34541;SDS011;20784;51.332;12.410;2024-02-21T02:15:42;10.90;;;3.55;;
34541;SDS011;20784;51.332;12.410;2024-02-21T02:18:13;11.40;;;3.65;;
34541;SDS011;20784;51.332;12.410;2024-02-21T02:20:39;12.82;;;4.30;;
34541;SDS011;20784;51.332;12.410;2024-02-21T02:23:25;16.58;;;3.88;;
34541;SDS011;20784;51.332;12.410;2024-02-21T02:25:58;15.30;;;4.30;;
34541;SDS011;20784;51.332;12.410;2024-02-21T02:28:26;17.05;;;3.95;;
34541;SDS011;20784;51.332;12.410;2024-02-21T02:30:52;19.95;;;3.85;;
34541;SDS011;20784;51.332;12.410;2024-02-21T02:33:18;12.98;;;3.40;;
34541;SDS011;20784;51.332;12.410;2024-02-21T02:35:44;10.45;;;3.60;;
34541;SDS011;20784;51.332;12.410;2024-02-21T02:38:14;15.00;;;4.00;;
34541;SDS011;20784;51.332;12.410;2024-02-21T02:40:40;15.77;;;3.80;;
34541;SDS011;20784;51.332;12.410;2024-02-21T02:43:06;13.90;;;3.53;;
34541;SDS011;20784;51.332;12.410;2024-02-21T02:45:32;12.65;;;3.30;;
34541;SDS011;20784;51.332;12.410;2024-02-21T02:47:57;13.73;;;3.88;;
34541;SDS011;20784;51.332;12.410;2024-02-21T02:50:23;15.45;;;3.97;;
34541;SDS011;20784;51.332;12.410;2024-02-21T02:52:49;14.82;;;3.83;;
34541;SDS011;20784;51.332;12.410;2024-02-21T02:55:15;18.17;;;3.75;;
34541;SDS011;20784;51.332;12.410;2024-02-21T02:57:44;16.40;;;4.18;;
34541;SDS011;20784;51.332;12.410;2024-02-21T03:00:12;18.05;;;4.18;;
34541;SDS011;20784;51.332;12.410;2024-02-21T03:02:39;17.08;;;3.88;;
34541;SDS011;20784;51.332;12.410;2024-02-21T03:05:14;13.55;;;3.13;;
34541;SDS011;20784;51.332;12.410;2024-02-21T03:07:46;15.05;;;3.33;;
34541;SDS011;20784;51.332;12.410;2024-02-21T03:10:12;20.20;;;3.88;;
34541;SDS011;20784;51.332;12.410;2024-02-21T03:12:38;15.60;;;4.20;;
34541;SDS011;20784;51.332;12.410;2024-02-21T03:15:04;12.60;;;3.38;;
34541;SDS011;20784;51.332;12.410;2024-02-21T03:17:31;16.52;;;3.67;;
34541;SDS011;20784;51.332;12.410;2024-02-21T03:19:57;13.48;;;3.90;;
34541;SDS011;20784;51.332;12.410;2024-02-21T03:22:24;17.33;;;4.18;;
34541;SDS011;20784;51.332;12.410;2024-02-21T03:24:50;9.02;;;3.53;;
34541;SDS011;20784;51.332;12.410;2024-02-21T03:27:16;11.18;;;3.63;;
34541;SDS011;20784;51.332;12.410;2024-02-21T03:29:42;11.77;;;3.53;;
34541;SDS011;20784;51.332;12.410;2024-02-21T03:32:07;18.17;;;4.85;;
34541;SDS011;20784;51.332;12.410;2024-02-21T03:34:33;13.50;;;3.45;;
34541;SDS011;20784;51.332;12.410;2024-02-21T03:36:58;14.82;;;3.75;;
34541;SDS011;20784;51.332;12.410;2024-02-21T03:39:24;13.20;;;3.80;;
34541;SDS011;20784;51.332;12.410;2024-02-21T03:41:50;13.23;;;3.58;;
34541;SDS011;20784;51.332;12.410;2024-02-21T03:44:16;12.38;;;3.55;;
34541;SDS011;20784;51.332;12.410;2024-02-21T03:46:45;10.15;;;3.35;;
34541;SDS011;20784;51.332;12.410;2024-02-21T03:49:10;14.43;;;3.65;;
34541;SDS011;20784;51.332;12.410;2024-02-21T03:51:36;9.25;;;3.28;;
34541;SDS011;20784;51.332;12.410;2024-02-21T03:54:02;10.82;;;3.88;;
34541;SDS011;20784;51.332;12.410;2024-02-21T03:56:28;19.85;;;4.00;;
34541;SDS011;20784;51.332;12.410;2024-02-21T03:58:53;10.23;;;3.53;;
34541;SDS011;20784;51.332;12.410;2024-02-21T04:01:23;15.85;;;4.38;;
34541;SDS011;20784;51.332;12.410;2024-02-21T04:03:48;18.80;;;3.97;;
34541;SDS011;20784;51.332;12.410;2024-02-21T04:06:14;11.85;;;3.00;;
34541;SDS011;20784;51.332;12.410;2024-02-21T04:08:39;11.75;;;3.53;;
34541;SDS011;20784;51.332;12.410;2024-02-21T04:11:05;16.65;;;4.10;;
34541;SDS011;20784;51.332;12.410;2024-02-21T04:13:30;22.52;;;5.10;;
34541;SDS011;20784;51.332;12.410;2024-02-21T04:15:56;12.80;;;3.50;;
34541;SDS011;20784;51.332;12.410;2024-02-21T04:18:22;16.50;;;3.78;;
34541;SDS011;20784;51.332;12.410;2024-02-21T04:20:47;19.25;;;3.60;;
34541;SDS011;20784;51.332;12.410;2024-02-21T04:23:13;15.65;;;4.30;;
34541;SDS011;20784;51.332;12.410;2024-02-21T04:25:39;15.50;;;4.07;;
34541;SDS011;20784;51.332;12.410;2024-02-21T04:28:04;12.95;;;3.60;;
34541;SDS011;20784;51.332;12.410;2024-02-21T04:30:30;16.15;;;4.85;;
34541;SDS011;20784;51.332;12.410;2024-02-21T04:32:56;12.32;;;3.80;;
34541;SDS011;20784;51.332;12.410;2024-02-21T04:35:21;10.90;;;3.58;;
34541;SDS011;20784;51.332;12.410;2024-02-21T04:37:52;13.80;;;4.10;;
34541;SDS011;20784;51.332;12.410;2024-02-21T04:40:18;18.45;;;3.97;;
34541;SDS011;20784;51.332;12.410;2024-02-21T04:42:43;14.18;;;4.30;;
34541;SDS011;20784;51.332;12.410;2024-02-21T04:45:09;21.08;;;4.63;;
34541;SDS011;20784;51.332;12.410;2024-02-21T04:47:35;14.00;;;4.38;;
34541;SDS011;20784;51.332;12.410;2024-02-21T04:50:03;13.68;;;3.75;;
34541;SDS011;20784;51.332;12.410;2024-02-21T04:52:29;9.98;;;3.80;;
34541;SDS011;20784;51.332;12.410;2024-02-21T04:54:54;13.38;;;4.35;;
34541;SDS011;20784;51.332;12.410;2024-02-21T04:57:21;12.70;;;4.10;;
34541;SDS011;20784;51.332;12.410;2024-02-21T04:59:46;16.80;;;4.25;;
34541;SDS011;20784;51.332;12.410;2024-02-21T05:02:12;12.65;;;4.22;;
34541;SDS011;20784;51.332;12.410;2024-02-21T05:04:38;20.42;;;4.75;;
34541;SDS011;20784;51.332;12.410;2024-02-21T05:07:06;15.57;;;5.00;;
34541;SDS011;20784;51.332;12.410;2024-02-21T05:09:31;13.93;;;4.03;;
34541;SDS011;20784;51.332;12.410;2024-02-21T05:11:57;13.98;;;3.85;;
34541;SDS011;20784;51.332;12.410;2024-02-21T05:14:26;10.07;;;3.97;;
34541;SDS011;20784;51.332;12.410;2024-02-21T05:16:52;16.27;;;4.40;;
34541;SDS011;20784;51.332;12.410;2024-02-21T05:19:17;13.05;;;4.82;;
34541;SDS011;20784;51.332;12.410;2024-02-21T05:21:43;16.75;;;5.80;;
34541;SDS011;20784;51.332;12.410;2024-02-21T05:24:09;17.13;;;4.97;;
34541;SDS011;20784;51.332;12.410;2024-02-21T05:26:34;13.95;;;4.65;;
34541;SDS011;20784;51.332;12.410;2024-02-21T05:29:00;10.98;;;3.67;;
34541;SDS011;20784;51.332;12.410;2024-02-21T05:31:25;13.93;;;3.80;;
34541;SDS011;20784;51.332;12.410;2024-02-21T05:33:51;19.65;;;4.32;;
34541;SDS011;20784;51.332;12.410;2024-02-21T05:36:17;13.25;;;4.43;;
34541;SDS011;20784;51.332;12.410;2024-02-21T05:38:42;14.95;;;3.95;;
34541;SDS011;20784;51.332;12.410;2024-02-21T05:41:08;14.18;;;3.90;;
34541;SDS011;20784;51.332;12.410;2024-02-21T05:43:33;15.73;;;4.43;;
34541;SDS011;20784;51.332;12.410;2024-02-21T05:45:59;14.05;;;3.65;;
34541;SDS011;20784;51.332;12.410;2024-02-21T05:48:24;13.10;;;3.72;;
34541;SDS011;20784;51.332;12.410;2024-02-21T05:50:50;16.70;;;4.05;;
34541;SDS011;20784;51.332;12.410;2024-02-21T05:53:16;13.27;;;3.78;;
34541;SDS011;20784;51.332;12.410;2024-02-21T05:55:41;14.18;;;3.70;;
34541;SDS011;20784;51.332;12.410;2024-02-21T05:58:07;18.63;;;3.90;;
34541;SDS011;20784;51.332;12.410;2024-02-21T06:00:35;18.20;;;4.75;;
34541;SDS011;20784;51.332;12.410;2024-02-21T06:03:00;11.98;;;4.65;;
34541;SDS011;20784;51.332;12.410;2024-02-21T06:05:28;13.95;;;5.00;;
34541;SDS011;20784;51.332;12.410;2024-02-21T06:07:53;15.43;;;5.47;;
34541;SDS011;20784;51.332;12.410;2024-02-21T06:10:19;24.70;;;7.55;;
34541;SDS011;20784;51.332;12.410;2024-02-21T06:12:44;13.65;;;3.78;;
34541;SDS011;20784;51.332;12.410;2024-02-21T06:15:10;16.00;;;4.50;;
34541;SDS011;20784;51.332;12.410;2024-02-21T06:17:35;16.88;;;5.38;;
34541;SDS011;20784;51.332;12.410;2024-02-21T06:20:01;15.45;;;4.32;;
34541;SDS011;20784;51.332;12.410;2024-02-21T06:22:26;14.63;;;4.45;;
34541;SDS011;20784;51.332;12.410;2024-02-21T06:24:52;14.57;;;4.55;;
34541;SDS011;20784;51.332;12.410;2024-02-21T06:27:19;18.15;;;5.68;;
34541;SDS011;20784;51.332;12.410;2024-02-21T06:29:44;15.88;;;5.32;;
34541;SDS011;20784;51.332;12.410;2024-02-21T06:32:10;20.20;;;5.63;;
34541;SDS011;20784;51.332;12.410;2024-02-21T06:34:38;18.23;;;4.22;;
34541;SDS011;20784;51.332;12.410;2024-02-21T06:37:03;12.77;;;4.15;;
34541;SDS011;20784;51.332;12.410;2024-02-21T06:39:29;13.05;;;4.00;;
34541;SDS011;20784;51.332;12.410;2024-02-21T06:41:55;16.85;;;5.00;;
34541;SDS011;20784;51.332;12.410;2024-02-21T06:44:23;16.40;;;5.60;;
34541;SDS011;20784;51.332;12.410;2024-02-21T06:46:49;12.90;;;4.38;;
34541;SDS011;20784;51.332;12.410;2024-02-21T06:49:14;20.50;;;5.35;;
34541;SDS011;20784;51.332;12.410;2024-02-21T06:51:43;12.40;;;4.15;;
34541;SDS011;20784;51.332;12.410;2024-02-21T06:54:08;14.45;;;4.53;;
34541;SDS011;20784;51.332;12.410;2024-02-21T06:56:35;13.23;;;4.65;;
34541;SDS011;20784;51.332;12.410;2024-02-21T06:59:02;17.40;;;4.95;;
34541;SDS011;20784;51.332;12.410;2024-02-21T07:01:28;16.75;;;4.53;;
34541;SDS011;20784;51.332;12.410;2024-02-21T07:03:54;15.82;;;4.95;;
34541;SDS011;20784;51.332;12.410;2024-02-21T07:06:20;11.45;;;4.22;;
34541;SDS011;20784;51.332;12.410;2024-02-21T07:08:45;15.57;;;4.65;;
34541;SDS011;20784;51.332;12.410;2024-02-21T07:11:13;9.75;;;4.20;;
34541;SDS011;20784;51.332;12.410;2024-02-21T07:13:39;8.75;;;3.65;;
34541;SDS011;20784;51.332;12.410;2024-02-21T07:16:04;11.68;;;4.68;;
34541;SDS011;20784;51.332;12.410;2024-02-21T07:18:31;14.25;;;4.20;;
34541;SDS011;20784;51.332;12.410;2024-02-21T07:20:56;24.17;;;5.75;;
34541;SDS011;20784;51.332;12.410;2024-02-21T07:23:23;13.48;;;4.60;;
34541;SDS011;20784;51.332;12.410;2024-02-21T07:25:49;12.90;;;3.95;;
34541;SDS011;20784;51.332;12.410;2024-02-21T07:28:14;19.30;;;5.68;;
34541;SDS011;20784;51.332;12.410;2024-02-21T07:30:41;16.75;;;4.65;;
34541;SDS011;20784;51.332;12.410;2024-02-21T07:33:06;18.98;;;5.05;;
34541;SDS011;20784;51.332;12.410;2024-02-21T07:35:32;17.80;;;5.75;;
34541;SDS011;20784;51.332;12.410;2024-02-21T07:37:57;12.82;;;4.90;;
34541;SDS011;20784;51.332;12.410;2024-02-21T07:40:23;10.85;;;4.72;;
34541;SDS011;20784;51.332;12.410;2024-02-21T07:42:49;15.15;;;6.55;;
34541;SDS011;20784;51.332;12.410;2024-02-21T07:45:14;14.43;;;6.45;;
34541;SDS011;20784;51.332;12.410;2024-02-21T07:47:40;16.10;;;6.00;;
34541;SDS011;20784;51.332;12.410;2024-02-21T07:50:06;14.48;;;6.78;;
34541;SDS011;20784;51.332;12.410;2024-02-21T07:52:32;12.68;;;6.55;;
34541;SDS011;20784;51.332;12.410;2024-02-21T07:54:57;16.02;;;6.40;;
34541;SDS011;20784;51.332;12.410;2024-02-21T07:57:23;11.52;;;5.57;;
34541;SDS011;20784;51.332;12.410;2024-02-21T07:59:48;17.80;;;6.55;;
34541;SDS011;20784;51.332;12.410;2024-02-21T08:02:14;15.85;;;5.60;;
34541;SDS011;20784;51.332;12.410;2024-02-21T08:04:40;14.93;;;5.13;;
34541;SDS011;20784;51.332;12.410;2024-02-21T08:07:05;24.35;;;6.10;;
34541;SDS011;20784;51.332;12.410;2024-02-21T08:09:31;12.77;;;5.25;;
34541;SDS011;20784;51.332;12.410;2024-02-21T08:11:56;14.60;;;5.20;;
34541;SDS011;20784;51.332;12.410;2024-02-21T08:14:22;10.02;;;4.95;;
34541;SDS011;20784;51.332;12.410;2024-02-21T08:16:49;10.27;;;4.95;;
34541;SDS011;20784;51.332;12.410;2024-02-21T08:19:20;12.18;;;4.70;;
34541;SDS011;20784;51.332;12.410;2024-02-21T08:21:45;12.93;;;5.28;;
34541;SDS011;20784;51.332;12.410;2024-02-21T08:24:14;12.30;;;5.13;;
34541;SDS011;20784;51.332;12.410;2024-02-21T08:26:43;13.57;;;5.10;;
34541;SDS011;20784;51.332;12.410;2024-02-21T08:29:12;16.17;;;5.22;;
34541;SDS011;20784;51.332;12.410;2024-02-21T08:31:40;11.80;;;5.10;;
34541;SDS011;20784;51.332;12.410;2024-02-21T08:34:05;15.02;;;5.13;;
34541;SDS011;20784;51.332;12.410;2024-02-21T08:36:31;16.42;;;5.93;;
34541;SDS011;20784;51.332;12.410;2024-02-21T08:39:01;14.13;;;5.65;;
34541;SDS011;20784;51.332;12.410;2024-02-21T08:41:30;14.57;;;5.30;;
34541;SDS011;20784;51.332;12.410;2024-02-21T08:43:56;13.73;;;5.43;;
34541;SDS011;20784;51.332;12.410;2024-02-21T08:46:24;14.75;;;5.68;;
34541;SDS011;20784;51.332;12.410;2024-02-21T08:48:50;11.43;;;5.30;;
34541;SDS011;20784;51.332;12.410;2024-02-21T08:51:16;18.35;;;5.72;;
34541;SDS011;20784;51.332;12.410;2024-02-21T08:53:43;18.83;;;5.95;;
34541;SDS011;20784;51.332;12.410;2024-02-21T08:56:12;16.95;;;5.63;;
34541;SDS011;20784;51.332;12.410;2024-02-21T08:58:39;14.77;;;5.25;;
34541;SDS011;20784;51.332;12.410;2024-02-21T09:01:05;19.40;;;6.40;;
34541;SDS011;20784;51.332;12.410;2024-02-21T09:03:32;12.38;;;5.78;;
34541;SDS011;20784;51.332;12.410;2024-02-21T09:05:58;13.55;;;5.68;;
34541;SDS011;20784;51.332;12.410;2024-02-21T09:08:24;14.77;;;5.93;;
34541;SDS011;20784;51.332;12.410;2024-02-21T09:10:53;18.77;;;5.55;;
34541;SDS011;20784;51.332;12.410;2024-02-21T09:13:19;14.90;;;6.18;;
34541;SDS011;20784;51.332;12.410;2024-02-21T09:15:44;24.60;;;6.18;;
34541;SDS011;20784;51.332;12.410;2024-02-21T09:18:12;15.90;;;5.35;;
34541;SDS011;20784;51.332;12.410;2024-02-21T09:20:38;15.32;;;6.63;;
34541;SDS011;20784;51.332;12.410;2024-02-21T09:23:03;14.25;;;5.55;;
34541;SDS011;20784;51.332;12.410;2024-02-21T09:25:29;16.52;;;5.63;;
34541;SDS011;20784;51.332;12.410;2024-02-21T09:27:59;13.38;;;5.97;;
34541;SDS011;20784;51.332;12.410;2024-02-21T09:30:25;15.63;;;5.32;;
34541;SDS011;20784;51.332;12.410;2024-02-21T09:32:51;15.85;;;5.43;;
34541;SDS011;20784;51.332;12.410;2024-02-21T09:35:17;16.65;;;5.47;;
34541;SDS011;20784;51.332;12.410;2024-02-21T09:37:43;16.27;;;5.47;;
34541;SDS011;20784;51.332;12.410;2024-02-21T09:40:09;14.45;;;5.95;;
34541;SDS011;20784;51.332;12.410;2024-02-21T09:42:38;15.88;;;5.22;;
34541;SDS011;20784;51.332;12.410;2024-02-21T09:45:07;16.08;;;6.10;;
34541;SDS011;20784;51.332;12.410;2024-02-21T09:47:43;11.60;;;5.85;;
34541;SDS011;20784;51.332;12.410;2024-02-21T09:50:34;14.02;;;4.70;;
34541;SDS011;20784;51.332;12.410;2024-02-21T09:53:01;20.92;;;6.40;;
34541;SDS011;20784;51.332;12.410;2024-02-21T09:55:27;12.40;;;5.45;;
34541;SDS011;20784;51.332;12.410;2024-02-21T09:57:57;18.67;;;5.65;;
34541;SDS011;20784;51.332;12.410;2024-02-21T10:00:23;17.42;;;5.63;;
34541;SDS011;20784;51.332;12.410;2024-02-21T10:02:49;18.13;;;5.10;;
34541;SDS011;20784;51.332;12.410;2024-02-21T10:05:15;14.15;;;5.10;;
34541;SDS011;20784;51.332;12.410;2024-02-21T10:07:44;16.15;;;5.15;;
34541;SDS011;20784;51.332;12.410;2024-02-21T10:10:09;13.60;;;4.45;;
34541;SDS011;20784;51.332;12.410;2024-02-21T10:12:35;14.43;;;5.32;;
34541;SDS011;20784;51.332;12.410;2024-02-21T10:15:01;13.38;;;5.10;;
34541;SDS011;20784;51.332;12.410;2024-02-21T10:17:28;19.35;;;5.38;;
34541;SDS011;20784;51.332;12.410;2024-02-21T10:19:53;15.38;;;5.45;;
34541;SDS011;20784;51.332;12.410;2024-02-21T10:22:19;11.15;;;4.63;;
34541;SDS011;20784;51.332;12.410;2024-02-21T10:24:50;14.45;;;4.60;;
34541;SDS011;20784;51.332;12.410;2024-02-21T10:27:15;15.27;;;4.97;;
34541;SDS011;20784;51.332;12.410;2024-02-21T10:29:41;11.43;;;4.70;;
34541;SDS011;20784;51.332;12.410;2024-02-21T10:32:07;13.20;;;4.78;;
34541;SDS011;20784;51.332;12.410;2024-02-21T10:34:37;18.63;;;4.93;;
34541;SDS011;20784;51.332;12.410;2024-02-21T10:37:05;9.35;;;4.32;;
34541;SDS011;20784;51.332;12.410;2024-02-21T10:39:32;16.25;;;5.30;;
34541;SDS011;20784;51.332;12.410;2024-02-21T10:42:02;15.80;;;5.03;;
34541;SDS011;20784;51.332;12.410;2024-02-21T10:44:36;14.85;;;4.78;;
34541;SDS011;20784;51.332;12.410;2024-02-21T10:47:07;15.02;;;4.60;;
34541;SDS011;20784;51.332;12.410;2024-02-21T10:49:36;19.67;;;4.55;;
34541;SDS011;20784;51.332;12.410;2024-02-21T10:57:21;12.83;;;3.93;;
34541;SDS011;20784;51.332;12.410;2024-02-21T10:59:47;9.48;;;3.65;;
34541;SDS011;20784;51.332;12.410;2024-02-21T11:02:33;10.20;;;3.60;;
34541;SDS011;20784;51.332;12.410;2024-02-21T11:05:03;14.35;;;3.78;;
34541;SDS011;20784;51.332;12.410;2024-02-21T11:07:30;8.38;;;3.45;;
34541;SDS011;20784;51.332;12.410;2024-02-21T11:10:04;10.98;;;4.07;;
34541;SDS011;20784;51.332;12.410;2024-02-21T11:12:32;10.95;;;3.60;;
34541;SDS011;20784;51.332;12.410;2024-02-21T11:15:05;9.40;;;3.65;;
34541;SDS011;20784;51.332;12.410;2024-02-21T11:17:31;12.95;;;3.83;;
34541;SDS011;20784;51.332;12.410;2024-02-21T11:20:10;13.88;;;4.32;;
34541;SDS011;20784;51.332;12.410;2024-02-21T11:22:42;10.50;;;4.07;;
34541;SDS011;20784;51.332;12.410;2024-02-21T11:25:08;12.70;;;4.38;;
34541;SDS011;20784;51.332;12.410;2024-02-21T11:27:36;14.25;;;4.20;;
34541;SDS011;20784;51.332;12.410;2024-02-21T11:30:03;9.38;;;4.15;;
34541;SDS011;20784;51.332;12.410;2024-02-21T11:32:37;11.35;;;5.25;;
34541;SDS011;20784;51.332;12.410;2024-02-21T11:35:03;11.63;;;3.72;;
34541;SDS011;20784;51.332;12.410;2024-02-21T11:37:30;8.40;;;3.65;;
34541;SDS011;20784;51.332;12.410;2024-02-21T11:40:01;5.85;;;2.97;;
34541;SDS011;20784;51.332;12.410;2024-02-21T11:42:29;7.80;;;3.83;;
34541;SDS011;20784;51.332;12.410;2024-02-21T11:44:59;8.27;;;3.65;;
34541;SDS011;20784;51.332;12.410;2024-02-21T11:47:25;7.38;;;3.40;;
34541;SDS011;20784;51.332;12.410;2024-02-21T11:49:51;11.00;;;3.40;;
34541;SDS011;20784;51.332;12.410;2024-02-21T11:52:22;6.25;;;3.30;;
34541;SDS011;20784;51.332;12.410;2024-02-21T11:54:52;6.32;;;2.78;;
34541;SDS011;20784;51.332;12.410;2024-02-21T11:57:19;7.10;;;3.05;;
34541;SDS011;20784;51.332;12.410;2024-02-21T11:59:45;8.30;;;2.92;;
34541;SDS011;20784;51.332;12.410;2024-02-21T12:02:12;7.82;;;2.78;;
34541;SDS011;20784;51.332;12.410;2024-02-21T12:04:38;9.90;;;2.83;;
34541;SDS011;20784;51.332;12.410;2024-02-21T12:07:14;5.47;;;2.50;;
34541;SDS011;20784;51.332;12.410;2024-02-21T12:09:59;3.10;;;1.90;;
34541;SDS011;20784;51.332;12.410;2024-02-21T12:12:54;3.63;;;2.30;;
34541;SDS011;20784;51.332;12.410;2024-02-21T12:15:48;5.55;;;2.30;;
34541;SDS011;20784;51.332;12.410;2024-02-21T12:18:33;4.57;;;1.80;;
34541;SDS011;20784;51.332;12.410;2024-02-21T12:21:04;4.75;;;2.00;;
34541;SDS011;20784;51.332;12.410;2024-02-21T12:26:59;6.82;;;2.50;;
34541;SDS011;20784;51.332;12.410;2024-02-21T12:30:03;4.97;;;2.30;;
34541;SDS011;20784;51.332;12.410;2024-02-21T12:32:42;4.97;;;2.33;;
34541;SDS011;20784;51.332;12.410;2024-02-21T12:35:14;6.30;;;2.85;;
34541;SDS011;20784;51.332;12.410;2024-02-21T12:38:01;4.18;;;1.90;;
34541;SDS011;20784;51.332;12.410;2024-02-21T12:40:46;4.68;;;2.20;;
34541;SDS011;20784;51.332;12.410;2024-02-21T12:43:32;6.40;;;2.30;;
34541;SDS011;20784;51.332;12.410;2024-02-21T12:46:01;10.98;;;2.80;;
34541;SDS011;20784;51.332;12.410;2024-02-21T12:48:47;6.45;;;3.05;;
34541;SDS011;20784;51.332;12.410;2024-02-21T12:51:19;5.07;;;2.70;;
34541;SDS011;20784;51.332;12.410;2024-02-21T12:53:54;6.88;;;2.22;;
34541;SDS011;20784;51.332;12.410;2024-02-21T12:56:38;6.32;;;2.63;;
34541;SDS011;20784;51.332;12.410;2024-02-21T12:59:11;4.60;;;2.60;;
34541;SDS011;20784;51.332;12.410;2024-02-21T13:01:36;6.97;;;2.78;;
34541;SDS011;20784;51.332;12.410;2024-02-21T13:04:02;4.97;;;2.22;;
34541;SDS011;20784;51.332;12.410;2024-02-21T13:06:30;9.25;;;3.05;;
34541;SDS011;20784;51.332;12.410;2024-02-21T13:08:56;8.82;;;2.35;;
34541;SDS011;20784;51.332;12.410;2024-02-21T13:11:27;10.60;;;2.75;;
34541;SDS011;20784;51.332;12.410;2024-02-21T13:13:55;5.07;;;2.30;;
34541;SDS011;20784;51.332;12.410;2024-02-21T13:16:23;4.25;;;2.35;;
34541;SDS011;20784;51.332;12.410;2024-02-21T13:18:54;8.07;;;2.72;;
34541;SDS011;20784;51.332;12.410;2024-02-21T13:21:56;11.00;;;2.70;;
34541;SDS011;20784;51.332;12.410;2024-02-21T13:24:30;9.93;;;3.17;;
34541;SDS011;20784;51.332;12.410;2024-02-21T13:26:56;4.50;;;2.42;;
34541;SDS011;20784;51.332;12.410;2024-02-21T13:29:22;6.95;;;2.30;;
34541;SDS011;20784;51.332;12.410;2024-02-21T13:31:47;8.35;;;2.70;;
34541;SDS011;20784;51.332;12.410;2024-02-21T13:34:14;5.28;;;1.98;;
34541;SDS011;20784;51.332;12.410;2024-02-21T13:36:40;7.68;;;2.33;;
34541;SDS011;20784;51.332;12.410;2024-02-21T13:39:06;6.95;;;2.00;;
34541;SDS011;20784;51.332;12.410;2024-02-21T13:41:33;9.63;;;2.22;;
34541;SDS011;20784;51.332;12.410;2024-02-21T13:43:59;7.75;;;2.75;;
34541;SDS011;20784;51.332;12.410;2024-02-21T13:46:28;4.88;;;1.85;;
34541;SDS011;20784;51.332;12.410;2024-02-21T13:49:01;6.78;;;2.38;;
34541;SDS011;20784;51.332;12.410;2024-02-21T13:51:32;4.30;;;1.98;;
34541;SDS011;20784;51.332;12.410;2024-02-21T13:53:59;4.57;;;2.65;;
34541;SDS011;20784;51.332;12.410;2024-02-21T13:56:24;7.13;;;2.00;;
34541;SDS011;20784;51.332;12.410;2024-02-21T13:58:50;7.10;;;3.30;;
34541;SDS011;20784;51.332;12.410;2024-02-21T14:01:15;9.68;;;2.65;;
34541;SDS011;20784;51.332;12.410;2024-02-21T14:03:41;5.40;;;2.45;;
34541;SDS011;20784;51.332;12.410;2024-02-21T14:06:06;9.00;;;2.53;;
34541;SDS011;20784;51.332;12.410;2024-02-21T14:08:32;6.05;;;2.20;;
34541;SDS011;20784;51.332;12.410;2024-02-21T14:10:59;10.32;;;2.65;;
34541;SDS011;20784;51.332;12.410;2024-02-21T14:13:25;8.52;;;3.03;;
34541;SDS011;20784;51.332;12.410;2024-02-21T14:15:51;4.07;;;2.13;;
34541;SDS011;20784;51.332;12.410;2024-02-21T14:18:16;7.43;;;2.67;;
34541;SDS011;20784;51.332;12.410;2024-02-21T14:20:45;5.82;;;2.53;;
34541;SDS011;20784;51.332;12.410;2024-02-21T14:23:11;8.45;;;2.72;;
34541;SDS011;20784;51.332;12.410;2024-02-21T14:25:38;10.75;;;2.92;;
34541;SDS011;20784;51.332;12.410;2024-02-21T14:28:04;8.25;;;2.47;;
34541;SDS011;20784;51.332;12.410;2024-02-21T14:30:30;4.75;;;2.25;;
34541;SDS011;20784;51.332;12.410;2024-02-21T14:32:56;6.45;;;2.10;;
34541;SDS011;20784;51.332;12.410;2024-02-21T14:35:23;5.68;;;2.00;;
34541;SDS011;20784;51.332;12.410;2024-02-21T14:37:49;7.95;;;2.40;;